createdAt,value
2023-03-24T00:01:28.231Z,84.66
2023-03-24T00:03:57.555Z,84.34
2023-03-24T00:06:26.585Z,84.54
2023-03-24T00:08:56.691Z,84.63
2023-03-24T00:11:26.421Z,84.97
2023-03-24T00:13:58.450Z,84.44
2023-03-24T00:16:27.066Z,84.19
2023-03-24T00:18:55.767Z,84.52
2023-03-24T00:21:26.618Z,84.32
2023-03-24T00:23:58.586Z,84.30
2023-03-24T00:26:28.385Z,84.73
2023-03-24T00:28:58.133Z,84.63
2023-03-24T00:31:27.253Z,84.34
2023-03-24T00:33:56.086Z,84.32
2023-03-24T00:36:29.364Z,84.22
2023-03-24T00:38:59.274Z,84.34
2023-03-24T00:41:29.078Z,84.00
2023-03-24T00:44:00.293Z,84.18
2023-03-24T00:46:29.654Z,83.77
2023-03-24T00:49:05.616Z,84.17
2023-03-24T00:51:40.593Z,84.16
2023-03-24T00:54:14.072Z,84.14
2023-03-24T00:56:43.742Z,83.77
2023-03-24T00:59:13.986Z,83.77
2023-03-24T01:01:43.723Z,83.93
2023-03-24T01:04:12.346Z,84.07
2023-03-24T01:06:41.416Z,84.12
2023-03-24T01:09:12.332Z,84.14
2023-03-24T01:11:42.458Z,83.72
2023-03-24T01:14:12.261Z,84.00
2023-03-24T01:16:42.055Z,84.20
2023-03-24T01:19:10.883Z,84.47
2023-03-24T01:21:42.199Z,84.39
2023-03-24T01:24:13.609Z,84.06
2023-03-24T01:26:42.542Z,84.48
2023-03-24T01:29:11.448Z,84.48
2023-03-24T01:31:40.115Z,84.45
2023-03-24T01:34:08.564Z,84.48
2023-03-24T01:36:36.966Z,84.31
2023-03-24T01:39:05.674Z,84.53
2023-03-24T01:41:39.869Z,84.59
2023-03-24T01:44:32.854Z,84.26
2023-03-24T01:47:02.418Z,84.84
2023-03-24T01:49:36.706Z,84.75
2023-03-24T01:52:10.901Z,84.94
2023-03-24T01:54:43.921Z,85.46
2023-03-24T01:57:21.974Z,84.91
2023-03-24T01:59:55.076Z,84.95
2023-03-24T02:02:46.533Z,85.17
2023-03-24T02:05:23.807Z,85.01
2023-03-24T02:07:59.270Z,84.94
2023-03-24T02:10:27.979Z,85.15
2023-03-24T02:12:58.082Z,86.54
2023-03-24T02:15:30.411Z,85.95
2023-03-24T02:18:08.343Z,84.13
2023-03-24T02:21:30.243Z,84.24
2023-03-24T02:24:32.245Z,84.29
2023-03-24T02:27:18.898Z,84.18
2023-03-24T02:30:44.921Z,84.19
2023-03-24T02:34:16.177Z,83.48
2023-03-24T02:37:28.503Z,83.61
2023-03-24T02:40:18.409Z,82.80
2023-03-24T02:43:18.467Z,82.73
2023-03-24T02:46:03.418Z,82.39
2023-03-24T02:48:41.538Z,82.19
2023-03-24T02:51:17.844Z,81.31
2023-03-24T02:54:02.760Z,81.30
2023-03-24T02:56:40.219Z,81.03
2023-03-24T02:59:23.304Z,81.32
2023-03-24T03:02:02.942Z,81.51
2023-03-24T03:05:00.954Z,81.71
2023-03-24T03:07:33.516Z,81.95
2023-03-24T03:10:08.869Z,81.98
2023-03-24T03:12:39.802Z,81.67
2023-03-24T03:15:13.331Z,81.67
2023-03-24T03:17:49.040Z,82.01
2023-03-24T03:20:24.367Z,83.08
2023-03-24T03:22:58.424Z,83.11
2023-03-24T03:25:34.313Z,82.81
2023-03-24T03:28:07.891Z,83.32
2023-03-24T03:30:42.019Z,82.61
2023-03-24T03:33:18.243Z,82.94
2023-03-24T03:35:53.303Z,82.85
2023-03-24T03:38:30.386Z,82.06
2023-03-24T03:41:01.443Z,82.10
2023-03-24T03:43:37.384Z,82.60
2023-03-24T03:46:08.353Z,81.95
2023-03-24T03:48:40.395Z,81.49
2023-03-24T03:51:13.889Z,81.42
2023-03-24T03:53:52.483Z,81.57
2023-03-24T03:56:25.479Z,81.34
2023-03-24T03:59:07.381Z,80.50
2023-03-24T04:01:42.092Z,80.43
2023-03-24T04:05:06.763Z,80.99
2023-03-24T04:08:21.989Z,81.54
2023-03-24T04:11:30.733Z,81.79
2023-03-24T04:14:58.970Z,81.62
2023-03-24T04:17:54.258Z,81.51
2023-03-24T04:21:13.051Z,82.08
2023-03-24T04:23:55.077Z,82.23
2023-03-24T04:26:34.552Z,82.18
2023-03-24T04:29:11.543Z,82.48
2023-03-24T04:31:49.352Z,82.70
2023-03-24T04:34:22.530Z,82.32
2023-03-24T04:36:56.104Z,82.54
2023-03-24T04:39:43.846Z,82.23
2023-03-24T04:42:23.039Z,81.69
2023-03-24T04:44:52.681Z,82.10
2023-03-24T04:47:53.767Z,81.74
2023-03-24T04:50:53.960Z,81.96
2023-03-24T04:53:22.654Z,81.81
2023-03-24T04:56:14.739Z,81.43
2023-03-24T04:58:59.790Z,81.30
2023-03-24T05:01:30.401Z,81.30
2023-03-24T05:04:25.176Z,81.55
2023-03-24T05:06:54.104Z,80.93
2023-03-24T05:09:27.151Z,80.74
2023-03-24T05:11:55.511Z,81.00
2023-03-24T05:14:25.361Z,80.58
2023-03-24T05:16:54.456Z,80.82
2023-03-24T05:19:25.351Z,80.77
2023-03-24T05:21:54.021Z,80.50
2023-03-24T05:24:22.420Z,80.69
2023-03-24T05:26:51.023Z,80.69
2023-03-24T05:29:21.551Z,81.07
2023-03-24T05:31:50.123Z,81.24
2023-03-24T05:34:20.329Z,80.97
2023-03-24T05:37:12.982Z,80.95
2023-03-24T05:39:41.967Z,81.20
2023-03-24T05:42:23.340Z,80.73
2023-03-24T05:44:51.907Z,80.54
2023-03-24T05:47:27.308Z,80.26
2023-03-24T05:49:56.660Z,80.18
2023-03-24T05:52:28.920Z,79.16
2023-03-24T05:55:09.458Z,79.22
2023-03-24T05:57:38.596Z,79.06
2023-03-24T06:00:27.367Z,79.09
2023-03-24T06:03:04.191Z,79.32
2023-03-24T06:05:46.115Z,78.76
2023-03-24T06:08:17.220Z,79.04
2023-03-24T06:10:45.640Z,79.07
2023-03-24T06:13:14.116Z,78.68
2023-03-24T06:15:46.996Z,79.28
2023-03-24T06:18:35.767Z,78.79
2023-03-24T06:21:14.083Z,78.85
2023-03-24T06:23:46.315Z,78.71
2023-03-24T06:26:19.196Z,78.49
2023-03-24T06:28:54.474Z,77.61
2023-03-24T06:31:24.513Z,78.02
2023-03-24T06:33:54.993Z,77.09
2023-03-24T06:36:25.713Z,77.20
2023-03-24T06:38:56.505Z,76.62
2023-03-24T06:41:26.204Z,76.41
2023-03-24T06:43:58.583Z,76.90
2023-03-24T06:46:27.440Z,77.38
2023-03-24T06:48:56.384Z,76.67
2023-03-24T06:51:24.891Z,76.63
2023-03-24T06:53:53.358Z,76.64
2023-03-24T06:56:25.307Z,77.12
2023-03-24T06:58:58.586Z,76.44
2023-03-24T07:01:30.817Z,76.23
2023-03-24T07:04:17.665Z,76.52
2023-03-24T07:07:10.830Z,75.91
2023-03-24T07:09:45.551Z,74.68
2023-03-24T07:12:15.693Z,75.02
2023-03-24T07:14:44.400Z,74.74
2023-03-24T07:17:13.704Z,74.99
2023-03-24T07:19:56.687Z,75.26
2023-03-24T07:22:45.123Z,74.14
2023-03-24T07:25:27.216Z,74.52
2023-03-24T07:28:04.511Z,74.64
2023-03-24T07:30:39.785Z,74.61
2023-03-24T07:33:12.049Z,74.30
2023-03-24T07:35:41.793Z,74.69
2023-03-24T07:38:11.318Z,74.77
2023-03-24T07:40:40.256Z,74.71
2023-03-24T07:43:10.155Z,74.91
2023-03-24T07:45:58.547Z,73.94
2023-03-24T07:48:30.003Z,74.66
2023-03-24T07:50:58.370Z,73.69
2023-03-24T07:53:53.227Z,73.42
2023-03-24T07:56:41.995Z,72.14
2023-03-24T07:59:14.939Z,72.29
2023-03-24T08:02:03.709Z,72.21
2023-03-24T08:04:54.855Z,70.80
2023-03-24T08:07:53.633Z,70.63
2023-03-24T08:10:24.819Z,70.34
2023-03-24T08:12:53.695Z,70.41
2023-03-24T08:15:24.044Z,69.46
2023-03-24T08:17:52.888Z,69.27
2023-03-24T08:20:24.720Z,68.91
2023-03-24T08:22:54.493Z,69.59
2023-03-24T08:25:25.737Z,69.05
2023-03-24T08:27:54.468Z,69.34
2023-03-24T08:30:26.725Z,69.14
2023-03-24T08:32:58.043Z,69.96
2023-03-24T08:36:01.594Z,70.34
2023-03-24T08:38:31.792Z,68.96
2023-03-24T08:41:02.724Z,67.12
2023-03-24T08:43:32.388Z,67.52
2023-03-24T08:46:03.017Z,67.65
2023-03-24T08:48:32.908Z,66.99
2023-03-24T08:51:01.267Z,67.15
2023-03-24T08:53:29.666Z,66.90
2023-03-24T08:55:58.088Z,67.24
2023-03-24T08:58:27.068Z,67.60
2023-03-24T09:00:55.429Z,69.04
2023-03-24T09:03:26.216Z,69.46
2023-03-24T09:05:58.373Z,67.77
2023-03-24T09:08:27.323Z,68.20
2023-03-24T09:10:55.796Z,67.07
2023-03-24T09:13:24.675Z,67.22
2023-03-24T09:15:55.670Z,66.24
2023-03-24T09:18:25.881Z,64.46
2023-03-24T09:20:54.696Z,64.28
2023-03-24T09:23:24.380Z,64.57
2023-03-24T09:25:54.556Z,64.42
2023-03-24T09:28:23.597Z,64.16
2023-03-24T09:30:52.495Z,64.15
2023-03-24T09:33:21.237Z,63.90
2023-03-24T09:35:59.254Z,63.66
2023-03-24T09:38:29.441Z,62.73
2023-03-24T09:41:02.986Z,62.91
2023-03-24T09:43:39.492Z,62.76
2023-03-24T09:46:15.588Z,63.74
2023-03-24T09:48:49.152Z,62.28
2023-03-24T09:51:24.105Z,61.97
2023-03-24T09:54:01.704Z,65.90
2023-03-24T09:56:32.045Z,69.06
2023-03-24T09:59:06.555Z,69.85
2023-03-24T10:01:36.897Z,69.78
2023-03-24T10:04:08.831Z,67.85
2023-03-24T10:06:42.875Z,69.76
2023-03-24T10:09:24.446Z,67.02
2023-03-24T10:12:11.035Z,66.59
2023-03-24T10:15:05.597Z,69.25
2023-03-24T10:17:49.396Z,72.27
2023-03-24T10:20:33.255Z,75.07
2023-03-24T10:23:21.603Z,76.28
2023-03-24T10:25:57.509Z,76.23
2023-03-24T10:28:33.423Z,76.49
2023-03-24T10:31:06.646Z,77.77
2023-03-24T10:33:37.460Z,78.08
2023-03-24T10:36:12.422Z,78.87
2023-03-24T10:38:42.421Z,79.83
2023-03-24T10:41:17.704Z,78.40
2023-03-24T10:43:47.579Z,76.43
2023-03-24T10:46:19.435Z,74.66
2023-03-24T10:48:49.939Z,71.62
2023-03-24T10:51:21.710Z,69.55
2023-03-24T10:53:52.194Z,69.29
2023-03-24T10:56:40.112Z,65.89
2023-03-24T10:59:28.850Z,66.46
2023-03-24T11:02:00.696Z,66.92
2023-03-24T11:04:32.133Z,66.15
2023-03-24T11:07:07.102Z,67.10
2023-03-24T11:09:43.813Z,68.21
2023-03-24T11:12:24.537Z,70.21
2023-03-24T11:15:07.557Z,71.76
2023-03-24T11:17:47.004Z,69.98
2023-03-24T11:20:22.015Z,69.82
2023-03-24T11:23:12.407Z,68.40
2023-03-24T11:25:46.915Z,68.43
2023-03-24T11:28:20.925Z,68.16
2023-03-24T11:30:51.676Z,68.53
2023-03-24T11:33:35.728Z,68.24
2023-03-24T11:36:33.836Z,68.33
2023-03-24T11:39:11.706Z,66.13
2023-03-24T11:41:45.765Z,65.56
2023-03-24T11:44:21.665Z,65.59
2023-03-24T11:46:54.765Z,66.29
2023-03-24T11:49:28.785Z,65.45
2023-03-24T11:51:57.527Z,67.43
2023-03-24T11:54:33.174Z,69.20
2023-03-24T11:57:10.615Z,66.05
2023-03-24T11:59:47.515Z,66.89
2023-03-24T12:02:26.503Z,66.52
2023-03-24T12:05:21.745Z,65.65
2023-03-24T12:08:46.248Z,63.76
2023-03-24T12:11:22.657Z,64.29
2023-03-24T12:13:53.936Z,63.35
2023-03-24T12:16:47.637Z,61.13
2023-03-24T12:20:05.172Z,61.73
2023-03-24T12:22:51.020Z,60.69
2023-03-24T12:25:32.100Z,59.13
2023-03-24T12:28:20.434Z,57.05
2023-03-24T12:31:04.380Z,56.36
2023-03-24T12:33:47.487Z,57.06
2023-03-24T12:36:32.713Z,57.00
2023-03-24T12:39:09.938Z,57.93
2023-03-24T12:42:10.561Z,58.23
2023-03-24T12:45:26.681Z,60.49
2023-03-24T12:48:37.342Z,62.25
2023-03-24T12:51:19.009Z,63.09
2023-03-24T12:54:05.350Z,63.28
2023-03-24T12:56:42.442Z,62.35
2023-03-24T12:59:17.834Z,63.82
2023-03-24T13:01:51.589Z,66.02
2023-03-24T13:04:27.638Z,67.92
2023-03-24T13:07:03.566Z,68.34
2023-03-24T13:09:46.210Z,68.59
2023-03-24T13:12:18.571Z,68.09
2023-03-24T13:14:58.570Z,66.70
2023-03-24T13:17:34.424Z,66.93
2023-03-24T13:20:08.248Z,66.65
2023-03-24T13:22:38.821Z,66.01
2023-03-24T13:25:21.609Z,66.41
2023-03-24T13:27:54.805Z,65.54
2023-03-24T13:30:35.110Z,66.13
2023-03-24T13:33:12.178Z,69.91
2023-03-24T13:36:14.974Z,72.89
2023-03-24T13:38:48.420Z,75.16
2023-03-24T13:41:24.033Z,76.06
2023-03-24T13:44:00.242Z,76.75
2023-03-24T13:46:29.461Z,76.38
2023-03-24T13:49:00.892Z,76.30
2023-03-24T13:51:34.085Z,76.51
2023-03-24T13:54:08.355Z,76.15
2023-03-24T13:56:40.568Z,76.07
2023-03-24T13:59:32.258Z,77.63
2023-03-24T14:02:24.527Z,79.14
2023-03-24T14:05:06.881Z,76.69
2023-03-24T14:07:47.165Z,74.75
2023-03-24T14:10:42.380Z,73.14
2023-03-24T14:13:38.923Z,69.99
2023-03-24T14:16:45.932Z,71.28
2023-03-24T14:19:31.321Z,69.12
2023-03-24T14:22:11.455Z,68.62
2023-03-24T14:24:43.624Z,67.47
2023-03-24T14:27:35.127Z,68.26
2023-03-24T14:30:14.642Z,67.66
2023-03-24T14:32:47.844Z,67.03
2023-03-24T14:35:31.032Z,66.10
2023-03-24T14:38:03.077Z,65.16
2023-03-24T14:40:40.757Z,64.15
2023-03-24T14:43:22.978Z,64.22
2023-03-24T14:46:01.552Z,64.83
2023-03-24T14:48:57.384Z,65.05
2023-03-24T14:51:39.752Z,62.18
2023-03-24T14:54:16.555Z,62.86
2023-03-24T14:56:53.078Z,62.77
2023-03-24T14:59:36.603Z,62.96
2023-03-24T15:02:17.200Z,62.61
2023-03-24T15:05:33.226Z,62.54
2023-03-24T15:08:13.941Z,61.82
2023-03-24T15:10:50.682Z,61.68
2023-03-24T15:13:34.012Z,61.91
2023-03-24T15:16:06.732Z,62.73
2023-03-24T15:18:38.885Z,61.76
2023-03-24T15:21:22.731Z,62.60
2023-03-24T15:23:51.715Z,61.92
2023-03-24T15:26:23.547Z,62.35
2023-03-24T15:29:07.844Z,62.27
2023-03-24T15:31:37.406Z,61.30
2023-03-24T15:34:26.523Z,61.49
2023-03-24T15:36:58.792Z,61.48
2023-03-24T15:39:30.404Z,61.33
2023-03-24T15:41:58.856Z,62.33
2023-03-24T15:44:31.649Z,62.02
2023-03-24T15:47:01.505Z,61.21
2023-03-24T15:49:34.511Z,61.26
2023-03-24T15:52:06.840Z,58.19
2023-03-24T15:54:41.840Z,56.88
2023-03-24T15:57:19.031Z,56.38
2023-03-24T15:59:51.770Z,56.12
2023-03-24T16:02:33.131Z,56.58
2023-03-24T16:05:12.023Z,57.05
2023-03-24T16:07:42.757Z,56.00
2023-03-24T16:10:32.652Z,55.79
2023-03-24T16:13:19.390Z,55.91
2023-03-24T16:15:56.908Z,56.70
2023-03-24T16:18:32.205Z,56.95
2023-03-24T16:21:01.442Z,56.62
2023-03-24T16:23:30.624Z,56.67
2023-03-24T16:25:59.106Z,55.65
2023-03-24T16:28:27.709Z,55.75
2023-03-24T16:31:03.336Z,55.82
2023-03-24T16:33:32.439Z,56.11
2023-03-24T16:36:01.291Z,56.82
2023-03-24T16:38:29.761Z,56.93
2023-03-24T16:40:58.792Z,57.16
2023-03-24T16:43:27.756Z,57.63
2023-03-24T16:45:57.510Z,57.93
2023-03-24T16:48:26.014Z,57.88
2023-03-24T16:50:56.038Z,56.72
2023-03-24T16:53:24.414Z,57.26
2023-03-24T16:55:52.717Z,57.36
2023-03-24T16:58:21.270Z,57.96
2023-03-24T17:00:50.163Z,57.69
2023-03-24T17:03:20.548Z,57.34
2023-03-24T17:05:51.298Z,57.16
2023-03-24T17:08:20.512Z,57.67
2023-03-24T17:10:53.633Z,57.14
2023-03-24T17:13:24.933Z,57.18
2023-03-24T17:15:53.879Z,57.49
2023-03-24T17:18:23.679Z,56.75
2023-03-24T17:20:52.099Z,56.98
2023-03-24T17:23:21.964Z,56.98
2023-03-24T17:25:50.345Z,57.71
2023-03-24T17:28:19.096Z,58.00
2023-03-24T17:30:47.538Z,58.00
2023-03-24T17:33:16.752Z,58.27
2023-03-24T17:35:47.483Z,58.56
2023-03-24T17:38:17.689Z,59.46
2023-03-24T17:40:47.524Z,60.13
2023-03-24T17:43:16.127Z,60.37
2023-03-24T17:45:44.606Z,60.83
2023-03-24T17:48:12.987Z,60.87
2023-03-24T17:50:41.891Z,60.99
2023-03-24T17:53:13.820Z,60.67
2023-03-24T17:55:42.297Z,61.11
2023-03-24T17:58:10.654Z,61.53
2023-03-24T18:00:39.090Z,61.66
2023-03-24T18:03:07.554Z,62.00
2023-03-24T18:05:35.929Z,62.12
2023-03-24T18:08:04.368Z,62.45
2023-03-24T18:10:36.197Z,62.08
2023-03-24T18:13:05.544Z,62.30
2023-03-24T18:15:34.518Z,62.35
2023-03-24T18:18:03.433Z,62.28
2023-03-24T18:20:32.117Z,60.93
2023-03-24T18:23:01.097Z,60.64
2023-03-24T18:25:30.011Z,60.68
2023-03-24T18:27:59.799Z,60.53
2023-03-24T18:30:28.151Z,60.71
2023-03-24T18:33:01.229Z,60.70
2023-03-24T18:35:30.388Z,60.87
2023-03-24T18:37:58.870Z,60.73
2023-03-24T18:40:27.608Z,60.92
2023-03-24T18:42:55.942Z,61.14
2023-03-24T18:45:25.703Z,61.16
2023-03-24T18:47:54.188Z,61.57
2023-03-24T18:50:22.630Z,61.11
2023-03-24T18:52:51.324Z,61.15
2023-03-24T18:55:20.882Z,61.60
2023-03-24T18:57:49.239Z,61.32
2023-03-24T19:00:20.267Z,61.07
2023-03-24T19:02:50.301Z,61.40
2023-03-24T19:05:18.911Z,61.23
2023-03-24T19:07:48.545Z,61.20
2023-03-24T19:10:16.990Z,61.59
2023-03-24T19:12:45.373Z,62.34
2023-03-24T19:15:14.568Z,64.45
2023-03-24T19:17:43.391Z,66.14
2023-03-24T19:20:14.030Z,68.63
2023-03-24T19:22:42.453Z,69.79
2023-03-24T19:25:11.389Z,70.31
2023-03-24T19:27:39.666Z,70.74
2023-03-24T19:30:10.370Z,70.05
2023-03-24T19:32:38.996Z,69.75
2023-03-24T19:35:08.430Z,69.12
2023-03-24T19:37:38.134Z,67.24
2023-03-24T19:40:11.457Z,66.21
2023-03-24T19:42:41.953Z,65.72
2023-03-24T19:45:12.471Z,64.59
2023-03-24T19:47:40.951Z,63.97
2023-03-24T19:50:11.104Z,64.01
2023-03-24T19:52:43.028Z,63.56
2023-03-24T19:55:12.320Z,63.44
2023-03-24T19:57:41.015Z,63.04
2023-03-24T20:00:14.607Z,64.22
2023-03-24T20:02:43.188Z,65.55
2023-03-24T20:05:11.738Z,68.18
2023-03-24T20:07:41.476Z,70.65
2023-03-24T20:10:11.565Z,72.29
2023-03-24T20:12:39.997Z,72.01
2023-03-24T20:15:10.044Z,72.17
2023-03-24T20:17:39.500Z,72.59
2023-03-24T20:20:11.727Z,71.98
2023-03-24T20:22:45.644Z,69.62
2023-03-24T20:25:17.084Z,67.50
2023-03-24T20:27:47.077Z,67.06
2023-03-24T20:30:20.507Z,65.51
2023-03-24T20:32:49.770Z,65.02
2023-03-24T20:35:18.332Z,65.00
2023-03-24T20:37:48.112Z,64.98
2023-03-24T20:40:16.961Z,66.52
2023-03-24T20:42:45.282Z,67.09
2023-03-24T20:45:13.989Z,68.16
2023-03-24T20:47:42.841Z,68.24
2023-03-24T20:50:12.250Z,67.24
2023-03-24T20:52:41.339Z,67.07
2023-03-24T20:55:12.511Z,65.35
2023-03-24T20:57:41.420Z,64.76
2023-03-24T21:00:14.036Z,63.34
2023-03-24T21:02:44.074Z,63.33
2023-03-24T21:05:12.783Z,63.88
2023-03-24T21:07:43.981Z,63.29
2023-03-24T21:10:14.669Z,63.19
2023-03-24T21:12:54.546Z,63.29
2023-03-24T21:15:26.185Z,67.00
2023-03-24T21:17:55.404Z,69.98
2023-03-24T21:20:26.904Z,71.18
2023-03-24T21:22:55.946Z,72.11
2023-03-24T21:25:28.830Z,71.85
2023-03-24T21:27:58.528Z,71.99
2023-03-24T21:30:28.277Z,72.23
2023-03-24T21:32:58.197Z,71.72
2023-03-24T21:35:26.675Z,72.25
2023-03-24T21:37:56.231Z,72.12
2023-03-24T21:40:27.095Z,72.10
2023-03-24T21:42:55.850Z,72.42
2023-03-24T21:45:24.693Z,72.93
2023-03-24T21:47:55.243Z,72.80
2023-03-24T21:50:24.099Z,72.97
2023-03-24T21:52:54.734Z,73.12
2023-03-24T21:55:27.903Z,72.86
2023-03-24T21:57:56.898Z,73.15
2023-03-24T22:00:30.015Z,72.93
2023-03-24T22:03:01.568Z,73.18
2023-03-24T22:05:29.920Z,72.24
2023-03-24T22:07:58.209Z,72.04
2023-03-24T22:10:29.728Z,71.50
2023-03-24T22:12:58.524Z,70.64
2023-03-24T22:15:26.941Z,69.97
2023-03-24T22:17:55.582Z,69.07
2023-03-24T22:20:28.230Z,67.87
2023-03-24T22:22:56.855Z,67.39
2023-03-24T22:25:25.526Z,67.24
2023-03-24T22:27:56.235Z,66.58
2023-03-24T22:30:25.097Z,66.59
2023-03-24T22:32:53.442Z,66.28
2023-03-24T22:35:23.324Z,66.68
2023-03-24T22:37:51.895Z,66.06
2023-03-24T22:40:20.333Z,66.71
2023-03-24T22:42:48.715Z,66.67
2023-03-24T22:45:18.764Z,66.98
2023-03-24T22:47:47.099Z,67.26
2023-03-24T22:50:15.462Z,67.91
2023-03-24T22:52:43.774Z,68.17
2023-03-24T22:55:12.128Z,67.73
2023-03-24T22:57:40.434Z,68.17
2023-03-24T23:00:11.107Z,67.94
2023-03-24T23:02:40.936Z,68.21
2023-03-24T23:05:10.575Z,67.45
2023-03-24T23:07:39.279Z,67.67
2023-03-24T23:10:11.708Z,67.63
2023-03-24T23:12:42.407Z,67.54
2023-03-24T23:15:14.120Z,67.41
2023-03-24T23:17:44.077Z,66.99
2023-03-24T23:20:15.474Z,67.37
2023-03-24T23:22:44.257Z,67.53
2023-03-24T23:25:13.462Z,67.36
2023-03-24T23:27:42.267Z,67.57
2023-03-24T23:30:14.612Z,67.71
2023-03-24T23:32:47.180Z,67.50
2023-03-24T23:35:17.198Z,67.35
2023-03-24T23:37:45.651Z,67.20
2023-03-24T23:40:15.974Z,67.32
2023-03-24T23:42:46.807Z,66.65
2023-03-24T23:45:18.345Z,66.50
2023-03-24T23:47:51.315Z,66.85
2023-03-24T23:50:20.904Z,66.55
2023-03-24T23:52:49.705Z,66.65
2023-03-24T23:55:21.064Z,66.75
2023-03-24T23:57:50.237Z,66.58
